Impacts TAF Board
For situational awareness. Not to be used for flight planning purposes.
IDs:

KSLC - Salt Lake City Intl, UT, US

Issued at 2340 UTC 04 Jul 2022
Updated at 0101 UTC 05 Jul 2022
Potential Impact None Slight Moderate High
Time0054Z 05/02Z 05/03Z 05/04Z 05/05Z 05/06Z 05/07Z 05/08Z 05/09Z 05/10Z 05/11Z 05/12Z 05/13Z 05/14Z>>
Type OBS PRVL PRVL PRVL PRVL PRVL PRVL PRVL PRVL PRVL PRVL PRVL PRVL PRVL
VIS 10 >6 >6 >6 >6 >6 >6 >6 >6 >6 >6 >6 >6 >6
CIG -- -- -- -- -- -- -- -- -- -- -- -- -- --
Cover FEW SKC SKC SKC SKC SKC SKC SKC SKC SKC SKC SKC SKC SKC
FltCat VFR VFR VFR VFR VFR VFR VFR VFR VFR VFR VFR VFR VFR VFR
WX -- -- -- -- -- -- -- -- -- -- -- -- -- --
WDir 210 200 150 150 150 150 150 150 150 150 150 150 150 190
WSpd 13 15 10 10 10 10 10 10 10 10 10 10 10 11
WGst 18 25 -- -- -- -- -- -- -- -- -- -- -- 22
WSHgt -- -- -- -- -- -- -- -- -- -- -- -- -- --
WSDir -- -- -- -- -- -- -- -- -- -- -- -- -- --
WSSpd -- -- -- -- -- -- -- -- -- -- -- -- -- --
Raw TAF
KSLC 042340Z 0500/0606 20015G25KT P6SM SKC
  FM050300 15010KT P6SM SKC
  FM051400 19011G22KT P6SM SKC


Raw METAR
KSLC 050054Z 21013G18KT 10SM FEW120 FEW180 36/M08 A2982 RMK AO2 PK WND 17030/0030 SLP029 TCU DSNT E T03561078
KSLC 042354Z 20009G24KT 10SM FEW120 FEW180 36/M08 A2983 RMK AO2 PK WND 18029/2332 SLP033 T03561083 10367 20322 56016
KSLC 042254Z 18020G30KT 10SM FEW120 FEW180 36/M08 A2985 RMK AO2 PK WND 18031/2228 SLP037 CB DSNT E T03611078

METAR Board
Radar Display
Forecast Discussion
For situational awareness. Not to be used for flight planning purposes.